Time;durP1;ratioP1;P1;durP2;ratioP2;P2;SDS_P1;SDS_P2;PMS_P1;PMS_P2;Temp;Humidity;BMP_temperature;BMP_pressure;BME280_temperature;BME280_humidity;BME280_pressure;Samples;Min_cycle;Max_cycle;Signal;HPM_P1;HPM_P2
2023/08/17 00:01:33;;;;;;;1999.90;999.90;;;21.60;99.90;;;;;;4992716;28;20438;-68
2023/08/17 00:03:59;;;;;;;1999.90;999.90;;;21.70;99.90;;;;;;4989450;28;20434;-69
2023/08/17 00:06:26;;;;;;;1999.90;999.90;;;21.60;99.90;;;;;;4993753;28;20441;-69
2023/08/17 00:08:53;;;;;;;1999.90;999.90;;;21.60;99.90;;;;;;4993054;28;20474;-70
2023/08/17 00:11:20;;;;;;;1999.90;999.90;;;21.70;99.90;;;;;;4993167;28;20441;-69
2023/08/17 00:13:46;;;;;;;1999.90;999.90;;;21.70;99.90;;;;;;4993469;28;20438;-67
2023/08/17 00:16:13;;;;;;;1999.90;999.90;;;21.70;99.90;;;;;;4992929;28;20441;-68
2023/08/17 00:18:41;;;;;;;1999.90;999.90;;;21.50;99.90;;;;;;4993026;28;20420;-69
2023/08/17 00:21:08;;;;;;;1999.90;999.90;;;21.50;99.90;;;;;;4992875;28;20451;-69
2023/08/17 00:23:35;;;;;;;1999.90;999.90;;;21.40;99.90;;;;;;4993051;28;20485;-69
2023/08/17 00:26:02;;;;;;;1999.90;999.90;;;21.40;99.90;;;;;;4993326;28;20481;-67
2023/08/17 00:28:28;;;;;;;1999.90;999.90;;;21.30;99.90;;;;;;4992242;28;20445;-69
2023/08/17 00:30:55;;;;;;;1999.90;999.90;;;21.40;99.90;;;;;;4990824;28;20442;-69
2023/08/17 00:33:22;;;;;;;1999.90;999.90;;;21.40;99.90;;;;;;4992519;28;20438;-68
2023/08/17 00:35:50;;;;;;;1999.90;999.90;;;21.30;99.90;;;;;;4993317;28;20434;-68
2023/08/17 00:38:16;;;;;;;1999.90;999.90;;;21.20;99.90;;;;;;4993067;28;20438;-68
2023/08/17 00:40:43;;;;;;;1999.90;999.90;;;21.30;99.90;;;;;;4992172;28;20445;-69
2023/08/17 00:43:10;;;;;;;1999.90;999.90;;;21.40;99.90;;;;;;4992361;28;20439;-68
2023/08/17 00:45:37;;;;;;;1999.90;999.90;;;21.40;99.90;;;;;;4992913;28;20937;-71
2023/08/17 00:48:07;;;;;;;1999.90;999.90;;;21.40;99.90;;;;;;4989495;28;20436;-69
2023/08/17 00:50:35;;;;;;;1999.90;999.90;;;21.10;99.90;;;;;;4992893;28;20469;-69
2023/08/17 00:53:04;;;;;;;1999.90;999.90;;;21.20;99.90;;;;;;4992673;28;21285;-69
2023/08/17 00:55:31;;;;;;;1999.90;999.90;;;21.20;99.90;;;;;;4992021;28;20438;-68
2023/08/17 00:57:58;;;;;;;1999.90;999.90;;;21.20;99.90;;;;;;4991805;28;20440;-69
2023/08/17 01:00:26;;;;;;;1999.90;999.90;;;21.00;99.90;;;;;;4992519;28;20854;-68
2023/08/17 01:02:54;;;;;;;1999.90;999.90;;;21.00;99.90;;;;;;4991141;28;20440;-68
2023/08/17 01:05:21;;;;;;;1999.90;999.90;;;20.90;99.90;;;;;;4991160;28;20504;-68
2023/08/17 01:07:48;;;;;;;1999.90;999.90;;;20.90;99.90;;;;;;4991105;28;20441;-68
2023/08/17 01:10:17;;;;;;;1999.90;999.90;;;21.00;99.90;;;;;;4992121;28;20434;-66
2023/08/17 01:12:53;;;;;;;1999.90;999.90;;;21.00;99.90;;;;;;4989787;28;20470;-68
2023/08/17 01:15:25;;;;;;;1999.90;999.90;;;21.10;99.90;;;;;;4992960;28;20438;-69
2023/08/17 01:17:59;;;;;;;1999.90;999.90;;;21.30;99.90;;;;;;4992320;28;20926;-69
2023/08/17 01:20:26;;;;;;;1999.90;999.90;;;21.30;99.90;;;;;;4985210;28;20442;-69
2023/08/17 01:22:56;;;;;;;1999.90;999.90;;;21.10;99.90;;;;;;4991658;28;20445;-68
2023/08/17 01:25:24;;;;;;;1999.90;999.90;;;20.90;99.90;;;;;;4990818;28;20438;-69
2023/08/17 01:27:51;;;;;;;1999.90;999.90;;;20.90;99.90;;;;;;4989740;28;20434;-70
2023/08/17 01:30:20;;;;;;;1999.90;999.90;;;20.80;99.90;;;;;;4990084;28;20470;-67
2023/08/17 01:32:51;;;;;;;1999.90;999.90;;;20.70;99.90;;;;;;4989317;28;20906;-68
2023/08/17 01:35:28;;;;;;;1999.90;999.90;;;20.70;99.90;;;;;;4991159;28;20434;-68
2023/08/17 01:37:59;;;;;;;1999.90;999.90;;;20.50;99.90;;;;;;4990963;28;20441;-68
2023/08/17 01:40:29;;;;;;;1999.90;999.90;;;20.60;99.90;;;;;;4992103;28;20965;-68
2023/08/17 01:42:56;;;;;;;1999.90;999.90;;;20.50;99.90;;;;;;4991966;28;20846;-67
2023/08/17 01:45:23;;;;;;;1999.90;999.90;;;20.50;99.90;;;;;;4991615;28;20438;-68
2023/08/17 01:47:50;;;;;;;1999.90;999.90;;;20.20;99.90;;;;;;4990744;28;20434;-68
2023/08/17 01:50:17;;;;;;;1999.90;999.90;;;20.20;99.90;;;;;;4991822;28;20442;-68
2023/08/17 01:52:43;;;;;;;1999.90;999.90;;;20.00;99.90;;;;;;4991548;28;20442;-67
2023/08/17 01:55:10;;;;;;;1999.90;999.90;;;19.90;99.90;;;;;;4992155;28;20437;-68
2023/08/17 01:57:38;;;;;;;1999.90;999.90;;;20.00;99.90;;;;;;4991200;28;20429;-68
2023/08/17 02:00:06;;;;;;;1999.90;999.90;;;20.00;99.90;;;;;;4990803;28;20825;-68
2023/08/17 02:02:33;;;;;;;1999.90;999.90;;;19.90;99.90;;;;;;4990861;28;20430;-68
2023/08/17 02:05:00;;;;;;;1999.90;999.90;;;19.90;99.90;;;;;;4991656;28;20434;-69
2023/08/17 02:07:26;;;;;;;1999.90;999.90;;;19.90;99.90;;;;;;4990906;28;20438;-67
2023/08/17 02:09:53;;;;;;;1999.90;999.90;;;19.80;99.90;;;;;;4991749;28;20439;-68
2023/08/17 02:12:20;;;;;;;1999.90;999.90;;;19.90;99.90;;;;;;4991197;28;20430;-68
2023/08/17 02:14:48;;;;;;;1999.90;999.90;;;19.60;99.90;;;;;;4990396;28;20462;-68
2023/08/17 02:17:16;;;;;;;1999.90;999.90;;;19.60;99.90;;;;;;4990428;28;20440;-68
2023/08/17 02:19:43;;;;;;;1999.90;999.90;;;19.50;99.90;;;;;;4991426;28;20493;-67
2023/08/17 02:22:10;;;;;;;1999.90;999.90;;;19.50;99.90;;;;;;4990928;28;20926;-68
2023/08/17 02:24:36;;;;;;;1999.90;999.90;;;19.40;99.90;;;;;;4991290;28;20442;-69
2023/08/17 02:27:04;;;;;;;1999.90;999.90;;;19.40;99.90;;;;;;4990106;28;20442;-68
2023/08/17 02:29:30;;;;;;;1999.90;999.90;;;19.40;99.90;;;;;;4989819;28;21071;-68
2023/08/17 02:31:58;;;;;;;1999.90;999.90;;;19.50;99.90;;;;;;4990618;28;20445;-68
2023/08/17 02:34:25;;;;;;;1999.90;999.90;;;19.70;99.90;;;;;;4991107;28;20435;-69
2023/08/17 02:36:52;;;;;;;1999.90;999.90;;;19.80;99.90;;;;;;4989834;28;20910;-68
2023/08/17 02:39:18;;;;;;;1999.90;999.90;;;19.70;99.90;;;;;;4991292;28;20438;-67
2023/08/17 02:41:48;;;;;;;1999.90;999.90;;;19.60;99.90;;;;;;4990389;28;20448;-69
2023/08/17 02:44:15;;;;;;;1999.90;999.90;;;19.60;99.90;;;;;;4990943;28;20434;-68
2023/08/17 02:46:42;;;;;;;1999.90;999.90;;;19.80;99.90;;;;;;4986596;28;20445;-67
2023/08/17 02:49:10;;;;;;;1999.90;999.90;;;19.90;99.90;;;;;;4990625;28;20930;-68
2023/08/17 02:51:37;;;;;;;1999.90;999.90;;;19.90;99.90;;;;;;4990304;28;20438;-69
2023/08/17 02:54:04;;;;;;;1999.90;999.90;;;19.90;99.90;;;;;;4990617;28;20442;-67
2023/08/17 02:56:31;;;;;;;1999.90;999.90;;;19.80;99.90;;;;;;4989927;28;20432;-68
2023/08/17 02:58:57;;;;;;;1999.90;999.90;;;19.80;99.90;;;;;;4990609;28;20446;-69
2023/08/17 03:01:24;;;;;;;1999.90;999.90;;;19.90;99.90;;;;;;4990681;28;20453;-68
2023/08/17 03:03:51;;;;;;;1999.90;999.90;;;20.00;99.90;;;;;;4990311;28;20438;-68
2023/08/17 03:06:19;;;;;;;1999.90;999.90;;;20.00;99.90;;;;;;4990018;28;20450;-69
2023/08/17 03:08:45;;;;;;;1999.90;999.90;;;20.00;99.90;;;;;;4990103;28;20441;-68
2023/08/17 03:11:12;;;;;;;1999.90;999.90;;;20.00;99.90;;;;;;4989095;28;20922;-67
2023/08/17 03:13:39;;;;;;;1999.90;999.90;;;20.00;99.90;;;;;;4989820;28;20431;-67
2023/08/17 03:16:05;;;;;;;1999.90;999.90;;;20.00;99.90;;;;;;4990115;28;20461;-68
2023/08/17 03:18:32;;;;;;;1999.90;999.90;;;19.90;99.90;;;;;;4992514;28;20434;-69
2023/08/17 03:20:59;;;;;;;1999.90;999.90;;;19.80;99.90;;;;;;4996186;28;20956;-68
2023/08/17 03:23:27;;;;;;;1999.90;999.90;;;19.80;99.90;;;;;;4996324;28;20449;-70
2023/08/17 03:25:54;;;;;;;1999.90;999.90;;;19.80;99.90;;;;;;4996752;28;20922;-70
2023/08/17 03:28:20;;;;;;;1999.90;999.90;;;19.90;99.90;;;;;;4996548;28;20437;-69
2023/08/17 03:30:47;;;;;;;1999.90;999.90;;;20.00;99.90;;;;;;4995915;28;20441;-69
2023/08/17 03:33:14;;;;;;;1999.90;999.90;;;20.20;99.90;;;;;;4996626;28;20514;-68
2023/08/17 03:35:40;;;;;;;1999.90;999.90;;;20.10;99.90;;;;;;4996801;28;20434;-66
2023/08/17 03:38:07;;;;;;;1999.90;999.90;;;20.10;99.90;;;;;;4995926;28;20445;-69
2023/08/17 03:40:36;;;;;;;1999.90;999.90;;;20.30;99.90;;;;;;4996046;28;20521;-70
2023/08/17 03:43:02;;;;;;;1999.90;999.90;;;20.20;99.90;;;;;;4994278;28;20444;-69
2023/08/17 03:45:30;;;;;;;1999.90;999.90;;;20.20;99.90;;;;;;4996053;28;20445;-69
2023/08/17 03:47:57;;;;;;;1999.90;999.90;;;20.10;99.90;;;;;;4996315;28;20434;-71
2023/08/17 03:50:23;;;;;;;1999.90;999.90;;;20.20;99.90;;;;;;4994820;28;20540;-69
2023/08/17 03:52:50;;;;;;;1999.90;999.90;;;20.30;99.90;;;;;;4991807;28;20439;-69
2023/08/17 03:55:17;;;;;;;1999.90;999.90;;;20.20;99.90;;;;;;4996178;28;20445;-69
2023/08/17 03:57:45;;;;;;;1999.90;999.90;;;20.40;99.90;;;;;;4995858;28;20433;-69
2023/08/17 04:00:12;;;;;;;1999.90;999.90;;;20.40;99.90;;;;;;4995684;28;20442;-69
2023/08/17 04:02:39;;;;;;;1999.90;999.90;;;20.20;99.90;;;;;;4996191;28;20445;-68
2023/08/17 04:05:06;;;;;;;1999.90;999.90;;;20.20;99.90;;;;;;4995492;28;20434;-69
2023/08/17 04:07:33;;;;;;;1999.90;999.90;;;20.30;99.90;;;;;;4995916;28;20430;-69
2023/08/17 04:10:00;;;;;;;1999.90;999.90;;;20.30;99.90;;;;;;4996119;28;20432;-69
2023/08/17 04:12:26;;;;;;;1999.90;999.90;;;20.10;99.90;;;;;;4995821;28;20434;-68
2023/08/17 04:14:54;;;;;;;1999.90;999.90;;;20.00;99.90;;;;;;4996436;28;20460;-69
2023/08/17 04:17:21;;;;;;;1999.90;999.90;;;20.00;99.90;;;;;;4994012;28;20434;-71
2023/08/17 04:19:48;;;;;;;1999.90;999.90;;;20.20;99.90;;;;;;4995843;28;20485;-69
2023/08/17 04:22:15;;;;;;;1999.90;999.90;;;20.30;99.90;;;;;;4995411;28;20444;-69
2023/08/17 04:24:41;;;;;;;1999.90;999.90;;;20.10;99.90;;;;;;4995819;28;20930;-68
2023/08/17 04:27:08;;;;;;;1999.90;999.90;;;20.10;99.90;;;;;;4995396;28;20438;-68
2023/08/17 04:29:35;;;;;;;1999.90;999.90;;;20.20;99.90;;;;;;4988237;28;20442;-70
2023/08/17 04:32:03;;;;;;;1999.90;999.90;;;20.10;99.90;;;;;;4992315;28;20438;-69
2023/08/17 04:34:30;;;;;;;1999.90;999.90;;;20.00;99.90;;;;;;4992981;28;20441;-69
2023/08/17 04:36:57;;;;;;;1999.90;999.90;;;20.00;99.90;;;;;;4992339;28;20938;-69
2023/08/17 04:39:24;;;;;;;1999.90;999.90;;;20.10;99.90;;;;;;4992762;28;20440;-69
2023/08/17 04:41:50;;;;;;;1999.90;999.90;;;20.10;99.90;;;;;;4992956;28;20442;-69
2023/08/17 04:44:17;;;;;;;1999.90;999.90;;;20.20;99.90;;;;;;4992754;28;20934;-69
2023/08/17 04:46:44;;;;;;;1999.90;999.90;;;20.20;99.90;;;;;;4991501;28;20495;-69
2023/08/17 04:49:12;;;;;;;1999.90;999.90;;;20.30;99.90;;;;;;4992676;28;20787;-69
2023/08/17 04:51:38;;;;;;;1999.90;999.90;;;20.40;99.90;;;;;;4992401;28;20445;-69
2023/08/17 04:54:05;;;;;;;1999.90;999.90;;;20.40;99.90;;;;;;4992577;28;20438;-69
2023/08/17 04:56:32;;;;;;;1999.90;999.90;;;20.40;99.90;;;;;;4991535;28;20945;-69
2023/08/17 04:58:58;;;;;;;1999.90;999.90;;;20.30;99.90;;;;;;4992263;28;20441;-71
2023/08/17 05:01:25;;;;;;;1999.90;999.90;;;20.20;99.90;;;;;;4987162;28;20438;-70
2023/08/17 05:03:52;;;;;;;1999.90;999.90;;;20.20;99.90;;;;;;4991797;28;20438;-70
2023/08/17 05:06:20;;;;;;;1999.90;999.90;;;20.20;99.90;;;;;;4992510;28;20976;-70
2023/08/17 05:08:47;;;;;;;1999.90;999.90;;;20.10;99.90;;;;;;5014655;23;20455;-67
2023/08/17 05:11:13;;;;;;;1999.90;999.90;;;20.30;99.90;;;;;;4991078;28;20414;-69
2023/08/17 05:13:40;;;;;;;1999.90;999.90;;;20.20;99.90;;;;;;4992939;28;20413;-68
2023/08/17 05:16:07;;;;;;;1999.90;999.90;;;20.20;99.90;;;;;;4992763;28;20430;-67
2023/08/17 05:18:33;;;;;;;1999.90;999.90;;;20.30;99.90;;;;;;4992568;28;20910;-68
2023/08/17 05:21:00;;;;;;;1999.90;999.90;;;20.40;99.90;;;;;;4992414;28;20414;-68
2023/08/17 05:23:28;;;;;;;1999.90;999.90;;;20.40;99.90;;;;;;4991305;28;20428;-67
2023/08/17 05:25:55;;;;;;;1999.90;999.90;;;20.40;99.90;;;;;;4982070;28;20435;-67
2023/08/17 05:28:22;;;;;;;1999.90;999.90;;;20.40;99.90;;;;;;4985638;28;20462;-68
2023/08/17 05:30:49;;;;;;;1999.90;999.90;;;20.40;99.90;;;;;;4990602;28;20445;-67
2023/08/17 05:33:16;;;;;;;1999.90;999.90;;;20.50;99.90;;;;;;4990672;28;20444;-68
2023/08/17 05:35:43;;;;;;;1999.90;999.90;;;20.30;99.90;;;;;;4976267;28;20970;-67
2023/08/17 05:38:10;;;;;;;1999.90;999.90;;;20.20;99.90;;;;;;4981952;28;20511;-67
2023/08/17 05:40:38;;;;;;;1999.90;999.90;;;20.20;99.90;;;;;;4983274;28;20529;-67
2023/08/17 05:43:05;;;;;;;1999.90;999.90;;;20.40;99.90;;;;;;4987731;28;20453;-67
2023/08/17 05:45:32;;;;;;;1999.90;999.90;;;20.40;99.90;;;;;;4992059;28;20427;-67
2023/08/17 05:47:58;;;;;;;1999.90;999.90;;;20.40;99.90;;;;;;4991959;28;20794;-67
2023/08/17 05:50:25;;;;;;;1999.90;999.90;;;20.20;99.90;;;;;;4989596;28;20476;-67
2023/08/17 05:52:53;;;;;;;1999.90;999.90;;;20.30;99.90;;;;;;4978936;28;20438;-67
2023/08/17 05:55:19;;;;;;;1999.90;999.90;;;20.20;99.90;;;;;;4983979;28;20440;-68
2023/08/17 05:57:47;;;;;;;1999.90;999.90;;;20.30;99.90;;;;;;4989292;28;20445;-68
2023/08/17 06:00:15;;;;;;;1999.90;999.90;;;20.40;99.90;;;;;;4989524;28;20445;-68
2023/08/17 06:02:42;;;;;;;1999.90;999.90;;;20.30;99.90;;;;;;4975486;28;20444;-67
2023/08/17 06:05:09;;;;;;;1999.90;999.90;;;20.40;99.90;;;;;;4981501;28;20496;-67
2023/08/17 06:07:36;;;;;;;1999.90;999.90;;;20.40;99.90;;;;;;4988476;28;20466;-66
2023/08/17 06:10:05;;;;;;;1999.90;999.90;;;20.40;99.90;;;;;;4988114;28;20918;-68
2023/08/17 06:12:32;;;;;;;1999.90;999.90;;;20.20;99.90;;;;;;4985752;28;20475;-67
2023/08/17 06:15:02;;;;;;;1999.90;999.90;;;20.30;99.90;;;;;;4985799;28;20845;-68
2023/08/17 06:17:29;;;;;;;1999.90;999.90;;;20.30;99.90;;;;;;4980015;28;20866;-67
2023/08/17 06:19:56;;;;;;;1999.90;999.90;;;20.30;99.90;;;;;;4988646;28;20445;-67
2023/08/17 06:22:22;;;;;;;1999.90;999.90;;;20.40;99.90;;;;;;4988957;28;21515;-67
2023/08/17 06:24:49;;;;;;;1999.90;999.90;;;20.30;99.90;;;;;;4995114;28;20441;-67
2023/08/17 06:27:16;;;;;;;1999.90;999.90;;;20.30;99.90;;;;;;4993940;28;20441;-68
2023/08/17 06:29:43;;;;;;;1999.90;999.90;;;20.30;99.90;;;;;;4986264;28;20432;-68
2023/08/17 06:32:11;;;;;;;1999.90;999.90;;;20.30;99.90;;;;;;4984914;28;20430;-68
2023/08/17 06:34:38;;;;;;;1999.90;999.90;;;20.30;99.90;;;;;;4985776;28;20439;-68
2023/08/17 06:37:05;;;;;;;1999.90;999.90;;;20.30;99.90;;;;;;4991115;28;20799;-68
2023/08/17 06:39:32;;;;;;;1999.90;999.90;;;20.30;99.90;;;;;;4991335;28;20422;-69
2023/08/17 06:41:59;;;;;;;1999.90;999.90;;;20.30;99.90;;;;;;4991268;28;20802;-68
2023/08/17 06:44:26;;;;;;;1999.90;999.90;;;20.30;99.90;;;;;;4994996;28;20438;-68
2023/08/17 06:46:52;;;;;;;1999.90;999.90;;;20.40;99.90;;;;;;5002637;28;20857;-67
2023/08/17 06:49:20;;;;;;;1999.90;999.90;;;20.30;99.90;;;;;;5010758;28;20425;-68
2023/08/17 06:51:47;;;;;;;1999.90;999.90;;;20.30;99.90;;;;;;5010479;28;20413;-68
2023/08/17 06:54:14;;;;;;;1999.90;999.90;;;20.50;99.90;;;;;;5010030;28;20413;-68
2023/08/17 06:56:41;;;;;;;1999.90;999.90;;;20.70;99.90;;;;;;5006621;28;20449;-68
2023/08/17 06:59:07;;;;;;;1999.90;999.90;;;20.70;99.90;;;;;;4998830;28;20768;-68
2023/08/17 07:01:34;;;;;;;1999.90;999.90;;;20.70;99.90;;;;;;5010162;28;20424;-68
2023/08/17 07:04:01;;;;;;;1999.90;999.90;;;20.60;99.90;;;;;;4985852;28;20465;-68
2023/08/17 07:06:29;;;;;;;1999.90;999.90;;;20.70;99.90;;;;;;4988312;28;20447;-68
2023/08/17 07:08:56;;;;;;;1999.90;999.90;;;20.80;99.90;;;;;;4993824;28;20441;-68
2023/08/17 07:11:23;;;;;;;1999.90;999.90;;;20.80;99.90;;;;;;4981941;28;20465;-68
2023/08/17 07:13:50;;;;;;;1999.90;999.90;;;20.70;99.90;;;;;;4982626;28;20454;-68
2023/08/17 07:16:16;;;;;;;1999.90;999.90;;;20.70;99.90;;;;;;4985215;28;20446;-68
2023/08/17 07:18:43;;;;;;;1999.90;999.90;;;20.70;99.90;;;;;;4991282;28;20438;-68
2023/08/17 07:21:10;;;;;;;1999.90;999.90;;;20.80;99.90;;;;;;4985605;28;20449;-67
2023/08/17 07:23:38;;;;;;;1999.90;999.90;;;20.90;99.90;;;;;;4991463;28;20446;-68
2023/08/17 07:26:04;;;;;;;1999.90;999.90;;;20.90;99.90;;;;;;4974613;28;20467;-68
2023/08/17 07:28:31;;;;;;;1999.90;999.90;;;20.90;99.90;;;;;;4979579;28;20443;-68
2023/08/17 07:30:58;;;;;;;1999.90;999.90;;;21.00;99.90;;;;;;4981633;28;20434;-66
2023/08/17 07:33:24;;;;;;;1999.90;999.90;;;21.20;99.90;;;;;;4985401;28;20436;-68
2023/08/17 07:35:53;;;;;;;1999.90;999.90;;;21.20;99.90;;;;;;4989371;28;20431;-66
2023/08/17 07:38:19;;;;;;;1999.90;999.90;;;21.20;99.90;;;;;;4975672;28;20467;-66
2023/08/17 07:40:47;;;;;;;1999.90;999.90;;;21.30;99.90;;;;;;4977323;28;20434;-66
2023/08/17 07:43:14;;;;;;;1999.90;999.90;;;21.60;99.90;;;;;;4987327;28;20428;-66
2023/08/17 07:45:41;;;;;;;1999.90;999.90;;;21.60;99.90;;;;;;4985651;28;20944;-66
2023/08/17 07:48:08;;;;;;;1999.90;999.90;;;21.70;99.90;;;;;;4985011;28;20438;-67
2023/08/17 07:50:34;;;;;;;1999.90;999.90;;;21.80;99.90;;;;;;4986310;28;20438;-66
2023/08/17 07:53:01;;;;;;;1999.90;999.90;;;21.90;99.90;;;;;;4980126;28;20444;-65
2023/08/17 07:55:28;;;;;;;1999.90;999.90;;;22.00;99.90;;;;;;4977615;28;20443;-68
2023/08/17 07:57:56;;;;;;;1999.90;999.90;;;22.10;99.90;;;;;;4981152;28;20442;-69
2023/08/17 08:00:22;;;;;;;1999.90;999.90;;;22.20;99.90;;;;;;4982629;28;20436;-68
2023/08/17 08:02:49;;;;;;;1999.90;999.90;;;22.10;99.90;;;;;;4988735;28;20461;-66
2023/08/17 08:05:16;;;;;;;1999.90;999.90;;;22.10;99.90;;;;;;4982743;28;20440;-66
2023/08/17 08:07:43;;;;;;;1999.90;999.90;;;22.10;99.90;;;;;;4984719;28;20438;-67
2023/08/17 08:10:10;;;;;;;1999.90;999.90;;;22.00;99.90;;;;;;4988528;28;20436;-66
2023/08/17 08:12:36;;;;;;;1999.90;999.90;;;22.10;99.90;;;;;;4989535;28;20447;-67
2023/08/17 08:15:05;;;;;;;1999.90;999.90;;;22.30;99.90;;;;;;4990040;28;20478;-66
2023/08/17 08:17:32;;;;;;;1999.90;999.90;;;22.60;99.90;;;;;;4990423;28;20959;-67
2023/08/17 08:19:59;;;;;;;1999.90;999.90;;;22.40;99.90;;;;;;4981685;28;20855;-67
2023/08/17 08:22:26;;;;;;;1999.90;999.90;;;22.50;99.90;;;;;;4992914;28;20461;-67
2023/08/17 08:24:53;;;;;;;1999.90;999.90;;;22.50;99.90;;;;;;4993358;28;20411;-66
2023/08/17 08:27:19;;;;;;;1999.90;999.90;;;22.60;99.90;;;;;;5001649;28;20418;-67
2023/08/17 08:29:46;;;;;;;1999.90;999.90;;;22.40;99.90;;;;;;5013481;28;20455;-67
2023/08/17 08:32:14;;;;;;;1999.90;999.90;;;22.50;99.90;;;;;;5013272;28;20409;-67
2023/08/17 08:34:41;;;;;;;1999.90;999.90;;;22.50;99.90;;;;;;5013317;28;20766;-67
2023/08/17 08:37:08;;;;;;;1999.90;999.90;;;22.50;99.90;;;;;;5013056;28;20417;-67
2023/08/17 08:39:49;;;;;;;1999.90;999.90;;;22.80;99.90;;;;;;5004667;28;20434;-67
2023/08/17 08:42:16;;;;;;;1999.90;999.90;;;22.80;99.90;;;;;;5004549;28;20412;-67
2023/08/17 08:44:42;;;;;;;1999.90;999.90;;;22.60;99.90;;;;;;5012588;28;20421;-67
2023/08/17 08:47:09;;;;;;;1999.90;999.90;;;22.50;99.90;;;;;;5001862;28;20434;-67
2023/08/17 08:49:41;;;;;;;1999.90;999.90;;;22.40;99.90;;;;;;4988035;28;20438;-67
2023/08/17 08:52:09;;;;;;;1999.90;999.90;;;22.50;99.90;;;;;;4992008;28;20466;-68
2023/08/17 08:54:38;;;;;;;1999.90;999.90;;;22.60;99.90;;;;;;4993770;28;20496;-67
2023/08/17 08:57:11;;;;;;;1999.90;999.90;;;22.50;99.90;;;;;;4978456;28;20436;-67
2023/08/17 08:59:43;;;;;;;1999.90;999.90;;;22.60;99.90;;;;;;4981337;28;20435;-67
2023/08/17 09:02:14;;;;;;;1999.90;999.90;;;22.50;99.90;;;;;;4988594;28;20433;-68
2023/08/17 09:04:43;;;;;;;1999.90;999.90;;;22.90;99.90;;;;;;4993464;28;20436;-67
2023/08/17 09:07:11;;;;;;;1999.90;999.90;;;22.90;99.90;;;;;;4990722;28;20434;-67
2023/08/17 09:09:38;;;;;;;1999.90;999.90;;;22.70;99.90;;;;;;4984574;28;20445;-67
2023/08/17 09:12:08;;;;;;;1999.90;999.90;;;22.70;99.90;;;;;;4987523;28;20448;-66
2023/08/17 09:14:35;;;;;;;1999.90;999.90;;;22.60;99.90;;;;;;4990176;28;20850;-66
2023/08/17 09:17:02;;;;;;;1999.90;999.90;;;22.80;99.90;;;;;;4996946;28;20424;-66
2023/08/17 09:19:28;;;;;;;1999.90;999.90;;;22.60;99.90;;;;;;4988802;28;20493;-66
2023/08/17 09:21:56;;;;;;;1999.90;999.90;;;22.70;99.90;;;;;;4981491;28;20460;-66
2023/08/17 09:24:23;;;;;;;1999.90;999.90;;;22.60;99.90;;;;;;4977938;28;20516;-66
2023/08/17 09:26:50;;;;;;;1999.90;999.90;;;22.90;99.90;;;;;;4984035;28;20450;-66
2023/08/17 09:29:18;;;;;;;1999.90;999.90;;;23.00;99.90;;;;;;4986538;28;20511;-66
2023/08/17 09:31:45;;;;;;;1999.90;999.90;;;23.00;99.90;;;;;;4988588;28;21033;-68
2023/08/17 09:34:11;;;;;;;1999.90;999.90;;;23.50;99.90;;;;;;4976075;28;20498;-68
2023/08/17 09:36:39;;;;;;;1999.90;999.90;;;23.70;99.90;;;;;;4981672;28;20440;-67
2023/08/17 09:39:08;;;;;;;1999.90;999.90;;;23.90;99.90;;;;;;4992044;28;20415;-68
2023/08/17 09:41:39;;;;;;;1999.90;999.90;;;23.90;99.90;;;;;;4990564;28;20413;-68
2023/08/17 09:44:07;;;;;;;1999.90;999.90;;;23.80;99.90;;;;;;4991106;28;20434;-69
2023/08/17 09:46:33;;;;;;;1999.90;999.90;;;23.70;99.90;;;;;;4991422;28;20426;-68
2023/08/17 09:49:04;;;;;;;1999.90;999.90;;;23.60;99.90;;;;;;4988198;28;20517;-68
2023/08/17 09:51:31;;;;;;;1999.90;999.90;;;23.50;99.90;;;;;;4985007;28;20473;-68
2023/08/17 09:53:58;;;;;;;1999.90;999.90;;;23.40;99.90;;;;;;4985077;28;20422;-68
2023/08/17 09:56:28;;;;;;;1999.90;999.90;;;23.40;99.90;;;;;;4987965;28;20442;-68
2023/08/17 09:58:56;;;;;;;1999.90;999.90;;;23.20;99.90;;;;;;4979722;28;20437;-67
2023/08/17 10:01:24;;;;;;;1999.90;999.90;;;23.20;99.90;;;;;;4975900;28;20447;-68
2023/08/17 10:03:52;;;;;;;1999.90;999.90;;;23.20;99.90;;;;;;4987060;28;20449;-68
2023/08/17 10:06:25;;;;;;;1999.90;999.90;;;23.00;99.90;;;;;;4983631;28;20438;-68
2023/08/17 10:08:56;;;;;;;1999.90;999.90;;;22.80;99.90;;;;;;4988846;28;20446;-67
2023/08/17 10:11:27;;;;;;;1999.90;999.90;;;22.70;99.90;;;;;;4976699;28;20987;-67
2023/08/17 10:14:02;;;;;;;1999.90;999.90;;;22.80;99.90;;;;;;4985069;28;20814;-67
2023/08/17 10:16:34;;;;;;;1999.90;999.90;;;22.80;99.90;;;;;;4980640;28;20498;-67
2023/08/17 10:19:10;;;;;;;1999.90;999.90;;;22.90;99.90;;;;;;4984810;28;20787;-66
2023/08/17 10:21:40;;;;;;;1999.90;999.90;;;23.00;99.90;;;;;;4989105;28;20466;-67
2023/08/17 10:24:08;;;;;;;1999.90;999.90;;;22.90;99.90;;;;;;4976599;28;20459;-67
2023/08/17 10:26:37;;;;;;;1999.90;999.90;;;23.00;99.90;;;;;;4983043;28;20438;-68
2023/08/17 10:29:04;;;;;;;1999.90;999.90;;;23.20;99.90;;;;;;4984699;28;20438;-68
2023/08/17 10:31:34;;;;;;;1999.90;999.90;;;23.50;99.90;;;;;;4987637;28;20433;-68
2023/08/17 10:34:02;;;;;;;1999.90;999.90;;;23.50;99.90;;;;;;4981183;28;20972;-67
2023/08/17 10:36:29;;;;;;;1999.90;999.90;;;23.40;99.90;;;;;;4991271;28;20918;-68
2023/08/17 10:39:19;;;;;;;1999.90;999.90;;;23.50;99.90;;;;;;4989199;28;20425;-68
2023/08/17 10:41:49;;;;;;;1999.90;999.90;;;23.40;99.90;;;;;;4999598;28;20410;-68
2023/08/17 10:44:17;;;;;;;1999.90;999.90;;;23.30;99.90;;;;;;5010970;28;20419;-68
2023/08/17 10:46:45;;;;;;;1999.90;999.90;;;23.20;99.90;;;;;;5010924;28;20421;-68
2023/08/17 10:49:26;;;;;;;1999.90;999.90;;;23.30;99.90;;;;;;5010915;28;20427;-67
2023/08/17 10:52:04;;;;;;;1999.90;999.90;;;23.50;99.90;;;;;;5010714;28;20479;-68
2023/08/17 10:54:38;;;;;;;1999.90;999.90;;;23.70;99.90;;;;;;5006234;28;20446;-68
2023/08/17 10:57:31;;;;;;;1999.90;999.90;;;23.90;99.90;;;;;;4991753;28;20790;-68
2023/08/17 11:00:21;;;;;;;1999.90;999.90;;;24.30;99.90;;;;;;4990852;28;20410;-69
2023/08/17 11:02:55;;;;;;;1999.90;999.90;;;24.60;99.90;;;;;;4990978;28;20505;-69
2023/08/17 11:05:42;;;;;;;1999.90;999.90;;;24.70;99.90;;;;;;4990890;28;20430;-68
2023/08/17 11:08:10;;;;;;;1999.90;999.90;;;24.70;99.90;;;;;;4990124;28;20499;-68
2023/08/17 11:10:38;;;;;;;1999.90;999.90;;;24.70;99.90;;;;;;4999016;28;20950;-68
2023/08/17 11:13:07;;;;;;;1999.90;999.90;;;24.50;99.90;;;;;;5011000;23;20870;-69
2023/08/17 11:15:38;;;;;;;1999.90;999.90;;;24.50;99.90;;;;;;4991173;28;20454;-69
2023/08/17 11:18:07;;;;;;;1999.90;999.90;;;24.40;99.90;;;;;;4991075;28;20414;-69
2023/08/17 11:20:35;;;;;;;1999.90;999.90;;;24.40;99.90;;;;;;4991076;28;20461;-68
2023/08/17 11:23:01;;;;;;;1999.90;999.90;;;24.00;99.90;;;;;;4968308;28;20420;-67
2023/08/17 11:25:30;;;;;;;1999.90;999.90;;;24.30;99.90;;;;;;4971872;28;20436;-69
2023/08/17 11:27:56;;;;;;;1999.90;999.90;;;24.40;99.90;;;;;;4971546;28;20416;-69
2023/08/17 11:30:25;;;;;;;1999.90;999.90;;;24.60;99.90;;;;;;4971535;28;20432;-68
2023/08/17 11:32:53;;;;;;;1999.90;999.90;;;24.80;99.90;;;;;;4971366;28;20950;-68
2023/08/17 11:35:20;;;;;;;1999.90;999.90;;;24.80;99.90;;;;;;4970896;28;20446;-69
2023/08/17 11:37:48;;;;;;;1999.90;999.90;;;24.90;99.90;;;;;;4963506;28;20479;-69
2023/08/17 11:40:15;;;;;;;1999.90;999.90;;;24.80;99.90;;;;;;4973350;28;20896;-69
2023/08/17 11:42:43;;;;;;;1999.90;999.90;;;25.10;99.90;;;;;;4972504;28;20446;-68
2023/08/17 11:45:10;;;;;;;1999.90;999.90;;;25.20;99.90;;;;;;4973431;28;20442;-69
2023/08/17 11:47:39;;;;;;;1999.90;999.90;;;25.30;99.90;;;;;;4975272;28;20878;-68
2023/08/17 11:50:07;;;;;;;1999.90;999.90;;;25.30;99.90;;;;;;4975241;28;20486;-69
2023/08/17 11:52:34;;;;;;;1999.90;999.90;;;25.30;99.90;;;;;;4974818;28;20904;-69
2023/08/17 11:55:00;;;;;;;1999.90;999.90;;;24.90;99.90;;;;;;4975221;28;20419;-67
2023/08/17 11:57:27;;;;;;;1999.90;999.90;;;25.00;99.90;;;;;;4974093;28;20811;-69
2023/08/17 11:59:55;;;;;;;1999.90;999.90;;;25.00;99.90;;;;;;4975427;28;20416;-68
2023/08/17 12:02:23;;;;;;;1999.90;999.90;;;25.00;99.90;;;;;;4974526;28;20955;-66